Time;durP1;ratioP1;P1;durP2;ratioP2;P2;SDS_P1;SDS_P2;PMS_P1;PMS_P2;Temp;Humidity;BMP_temperature;BMP_pressure;BME280_temperature;BME280_humidity;BME280_pressure;Samples;Min_cycle;Max_cycle;Signal;HPM_P1;HPM_P2
2021/12/21 00:01:11;;;;;;;29.53;14.20;;;;;;;;;;5073430;28;20410;-83
2021/12/21 00:03:37;;;;;;;18.33;11.53;;;;;;;;;;5071025;28;20430;-83
2021/12/21 00:06:03;;;;;;;23.13;12.27;;;;;;;;;;5070008;28;20442;-83
2021/12/21 00:08:29;;;;;;;30.63;12.50;;;;;;;;;;5070976;28;20485;-83
2021/12/21 00:10:57;;;;;;;31.83;13.17;;;;;;;;;;5074391;28;20410;-83
2021/12/21 00:13:42;;;;;;;22.63;11.47;;;;;;;;;;5090842;28;20413;-83
2021/12/21 00:26:05;;;;;;;28.33;11.70;;;-3.50;99.90;;;;;;5090452;28;20501;-83
2021/12/21 00:28:36;;;;;;;22.50;12.83;;;;;;;;;;5090315;28;20468;-84
2021/12/21 00:31:02;;;;;;;29.07;12.20;;;;;;;;;;5089278;28;20413;-84
2021/12/21 00:33:28;;;;;;;31.63;11.57;;;;;;;;;;5090229;28;20448;-84
2021/12/21 00:35:54;;;;;;;23.00;12.70;;;;;;;;;;5078501;28;20442;-84
2021/12/21 00:38:20;;;;;;;22.50;11.60;;;;;;;;;;5066542;28;20414;-84
2021/12/21 00:40:46;;;;;;;17.03;11.30;;;;;;;;;;5050853;28;20502;-84
2021/12/21 00:43:12;;;;;;;22.10;10.13;;;;;;;;;;5050989;28;20501;-84
2021/12/21 00:45:38;;;;;;;26.40;12.20;;;;;;;;;;5051106;28;20408;-83
2021/12/21 00:48:04;;;;;;;31.90;11.57;;;;;;;;;;5051032;28;20564;-84
2021/12/21 00:50:30;;;;;;;27.37;12.20;;;;;;;;;;5052219;28;20556;-84
2021/12/21 00:52:56;;;;;;;29.50;12.17;;;;;;;;;;5050799;28;20450;-84
2021/12/21 00:55:23;;;;;;;44.00;13.67;;;;;;;;;;5050609;28;20427;-84
2021/12/21 00:57:49;;;;;;;29.90;10.10;;;;;;;;;;5052277;28;20416;-84
2021/12/21 01:00:16;;;;;;;19.43;10.13;;;;;;;;;;5050732;28;20422;-84
2021/12/21 01:02:42;;;;;;;31.43;12.20;;;;;;;;;;5050359;28;20916;-84
2021/12/21 01:05:17;;;;;;;39.43;11.00;;;-3.40;99.90;;;;;;5051948;28;20430;-84
2021/12/21 01:07:47;;;;;;;25.10;11.50;;;;;;;;;;5051866;28;20461;-84
2021/12/21 01:18:17;;;;;;;26.13;16.90;;;;;;;;;;5051905;28;20507;-84
2021/12/21 01:21:19;;;;;;;28.87;12.10;;;;;;;;;;5051584;28;20402;-84
2021/12/21 01:33:54;;;;;;;29.17;12.13;;;;;;;;;;5051261;28;20465;-84
2021/12/21 01:36:32;;;;;;;22.20;12.10;;;;;;;;;;5051493;28;20457;-84
2021/12/21 01:39:14;;;;;;;18.03;10.67;;;;;;;;;;5051400;28;20486;-83
2021/12/21 01:42:32;;;;;;;28.33;11.57;;;;;;;;;;5051282;28;20402;-84
2021/12/21 01:49:58;;;;;;;31.60;11.90;;;;;;;;;;5051171;28;20421;-84
2021/12/21 01:52:25;;;;;;;37.03;11.47;;;;;;;;;;5048655;28;20838;-83
2021/12/21 01:54:52;;;;;;;48.17;13.60;;;;;;;;;;5051256;28;20430;-84
2021/12/21 01:57:18;;;;;;;32.87;11.00;;;;;;;;;;5050985;28;20426;-84
2021/12/21 01:59:46;;;;;;;25.93;12.80;;;-3.40;99.90;;;;;;5051008;28;20845;-84
2021/12/21 02:02:13;;;;;;;22.53;10.30;;;;;;;;;;5050666;28;20463;-84
2021/12/21 07:35:31;;;;;;;22.77;11.27;;;;;;;;;;5082745;27;1268199;-83
2021/12/21 07:37:57;;;;;;;25.00;13.00;;;;;;;;;;5129003;28;20411;-83
2021/12/21 07:40:23;;;;;;;17.07;11.57;;;;;;;;;;5129697;28;20393;-83
2021/12/21 07:42:49;;;;;;;14.30;11.33;;;;;;;;;;5132365;28;20403;-83
2021/12/21 07:45:15;;;;;;;14.40;10.23;;;;;;;;;;5133304;27;20937;-83
2021/12/21 07:47:42;;;;;;;27.13;12.27;;;;;;;;;;5131187;28;20399;-83
2021/12/21 07:50:08;;;;;;;19.00;11.30;;;;;;;;;;5129402;28;20414;-82
2021/12/21 07:52:34;;;;;;;17.60;10.80;;;;;;;;;;5130168;28;20413;-82
2021/12/21 07:55:00;;;;;;;23.83;11.53;;;;;;;;;;5129958;28;20486;-82
2021/12/21 07:57:26;;;;;;;26.13;12.90;;;;;;;;;;5130197;28;20781;-83
2021/12/21 07:59:52;;;;;;;22.93;11.37;;;;;;;;;;5130997;28;20452;-82
2021/12/21 08:02:18;;;;;;;23.77;12.40;;;;;;;;;;5128974;28;20467;-83
2021/12/21 08:04:44;;;;;;;21.10;11.97;;;;;;;;;;5129160;28;20443;-83
2021/12/21 08:07:15;;;;;;;24.20;13.00;;;-3.90;99.90;;;;;;5129830;28;20419;-83
2021/12/21 08:09:45;;;;;;;14.67;10.47;;;;;;;;;;5127146;27;20415;-83
2021/12/21 08:14:38;;;;;;;18.00;11.90;;;;;;;;;;5127027;27;21150;-82
2021/12/21 08:17:04;;;;;;;26.90;13.20;;;;;;;;;;5127177;28;20402;-82
2021/12/21 08:19:30;;;;;;;24.63;13.60;;;;;;;;;;5126933;28;20544;-82
2021/12/21 08:21:56;;;;;;;30.77;13.47;;;;;;;;;;5125569;28;20489;-83
2021/12/21 08:24:22;;;;;;;27.20;12.93;;;;;;;;;;5127911;28;20746;-83
2021/12/21 08:26:48;;;;;;;32.27;12.03;;;;;;;;;;5128426;28;20418;-83
2021/12/21 08:29:14;;;;;;;26.77;13.20;;;;;;;;;;5125818;28;20902;-83
2021/12/21 08:31:40;;;;;;;38.30;14.60;;;;;;;;;;5129445;28;20465;-83
2021/12/21 08:34:06;;;;;;;30.20;15.17;;;;;;;;;;5117023;28;20957;-84
2021/12/21 08:36:32;;;;;;;25.90;14.43;;;;;;;;;;5111734;28;20422;-83
2021/12/21 08:38:58;;;;;;;21.00;14.40;;;;;;;;;;5114185;28;20416;-82
2021/12/21 08:41:26;;;;;;;24.20;13.07;;;;;;;;;;5130877;28;20528;-82
2021/12/21 08:43:52;;;;;;;23.63;14.50;;;;;;;;;;5123164;28;20411;-82
2021/12/21 08:46:18;;;;;;;32.63;13.63;;;;;;;;;;5103397;28;20436;-82
2021/12/21 08:48:44;;;;;;;23.30;15.20;;;;;;;;;;5100483;28;20432;-82
2021/12/21 08:51:10;;;;;;;43.53;15.57;;;;;;;;;;5102230;28;20491;-82
2021/12/21 08:53:42;;;;;;;27.17;15.60;;;;;;;;;;5100305;28;20495;-82
2021/12/21 08:56:08;;;;;;;44.47;14.87;;;;;;;;;;5100647;28;20429;-83
2021/12/21 08:58:34;;;;;;;38.73;17.33;;;;;;;;;;5102002;28;20959;-83
2021/12/21 09:01:00;;;;;;;29.80;15.63;;;;;;;;;;5099670;28;20409;-83
2021/12/21 09:03:26;;;;;;;28.77;15.70;;;;;;;;;;5100178;28;20889;-81
2021/12/21 09:05:52;;;;;;;22.87;15.77;;;;;;;;;;5099897;28;20455;-81
2021/12/21 09:08:18;;;;;;;25.57;16.07;;;;;;;;;;5100085;28;20379;-81
2021/12/21 09:10:45;;;;;;;44.50;16.87;;;;;;;;;;5099653;28;20477;-80
2021/12/21 09:13:11;;;;;;;47.40;20.87;;;;;;;;;;5095425;28;20784;-81
2021/12/21 09:15:37;;;;;;;35.37;17.87;;;2.20;99.90;;;;;;5092436;28;20519;-81
2021/12/21 09:18:04;;;;;;;31.57;14.90;;;;;;;;;;5092227;28;20404;-81
2021/12/21 09:20:31;;;;;;;26.23;15.37;;;3.40;99.90;;;;;;5092319;28;20454;-81
2021/12/21 09:22:58;;;;;;;31.67;13.93;;;4.10;99.90;;;;;;5092440;28;20427;-81
2021/12/21 09:25:24;;;;;;;23.97;12.60;;;;;;;;;;5090418;28;20429;-81
2021/12/21 09:27:50;;;;;;;18.70;12.23;;;5.00;99.90;;;;;;5090765;28;21019;-81
2021/12/21 09:30:19;;;;;;;23.87;10.63;;;5.10;99.90;;;;;;5097584;28;20519;-81
2021/12/21 09:32:45;;;;;;;16.23;10.30;;;;;;;;;;5103077;28;21237;-81
2021/12/21 09:35:12;;;;;;;12.33;8.80;;;6.20;99.90;;;;;;5108833;28;20988;-81
2021/12/21 09:37:39;;;;;;;10.97;8.50;;;;;;;;;;5097274;28;20798;-81
2021/12/21 09:40:08;;;;;;;15.83;7.97;;;5.10;95.90;;;;;;5091438;28;21012;-81
2021/12/21 09:42:34;;;;;;;9.97;7.47;;;;;;;;;;5091640;28;20957;-81
2021/12/21 09:45:00;;;;;;;13.07;8.90;;;;;;;;;;5091693;28;20880;-81
2021/12/21 09:47:28;;;;;;;19.40;8.90;;;2.80;97.20;;;;;;5091415;28;20409;-81
2021/12/21 09:49:55;;;;;;;16.43;8.70;;;;;;;;;;5091714;28;20404;-82
2021/12/21 09:52:25;;;;;;;13.87;8.47;;;2.10;99.00;;;;;;5090780;28;20896;-81
2021/12/21 09:54:51;;;;;;;12.50;9.03;;;;;;;;;;5089372;28;20464;-81
2021/12/21 09:57:18;;;;;;;16.30;9.80;;;1.80;99.90;;;;;;5088622;28;20405;-81
2021/12/21 09:59:45;;;;;;;26.10;11.20;;;1.70;99.90;;;;;;5094810;28;20495;-81
2021/12/21 10:02:11;;;;;;;17.83;10.50;;;;;;;;;;5111550;28;20513;-81
2021/12/21 10:04:49;;;;;;;22.00;10.67;;;1.20;99.60;;;;;;5111964;28;20481;-81
2021/12/21 10:07:15;;;;;;;10.77;8.47;;;;;;;;;;5110549;28;20484;-81
2021/12/21 10:09:43;;;;;;;12.63;9.80;;;;;;;;;;5112467;28;20381;-81
2021/12/21 10:12:14;;;;;;;18.17;9.10;;;0.70;99.90;;;;;;5111821;28;20416;-81
2021/12/21 10:14:40;;;;;;;25.40;9.23;;;;;;;;;;5113238;28;20437;-81
2021/12/21 10:17:07;;;;;;;18.63;11.00;;;;;;;;;;5113512;28;20470;-80
2021/12/21 10:19:35;;;;;;;15.97;10.73;;;1.40;99.90;;;;;;5111173;28;20466;-80
2021/12/21 10:22:11;;;;;;;18.60;9.43;;;;;;;;;;5111184;28;20516;-81
2021/12/21 10:24:43;;;;;;;14.37;9.70;;;;;;;;;;5097920;28;20999;-81
2021/12/21 10:27:10;;;;;;;24.80;9.70;;;;;;;;;;5090839;28;20375;-81
2021/12/21 10:29:47;;;;;;;25.60;12.30;;;;;;;;;;5093221;28;20491;-79
2021/12/21 10:32:29;;;;;;;27.37;12.50;;;;;;;;;;5110784;28;20867;-80
2021/12/21 10:34:58;;;;;;;12.50;8.43;;;;;;;;;;5113273;28;21051;-80
2021/12/21 10:37:27;;;;;;;58.90;28.33;;;9.50;99.90;;;;;;5112480;28;20412;-80
2021/12/21 10:40:11;;;;;;;7.50;6.47;;;9.20;97.50;;;;;;5110451;28;20411;-81
2021/12/21 10:42:53;;;;;;;11.17;6.23;;;9.60;97.80;;;;;;5110164;28;20789;-81
2021/12/21 10:45:25;;;;;;;13.43;5.23;;;10.10;96.60;;;;;;5111993;28;21026;-82
2021/12/21 10:47:51;;;;;;;7.40;5.77;;;;;;;;;;5109848;28;20419;-82
2021/12/21 10:50:17;;;;;;;13.13;5.50;;;;;;;;;;5111251;28;20415;-82
2021/12/21 10:52:49;;;;;;;8.67;5.93;;;11.80;95.70;;;;;;5111658;28;21107;-82
2021/12/21 10:55:15;;;;;;;13.70;6.10;;;;;;;;;;5110172;28;20463;-84
2021/12/21 10:57:41;;;;;;;8.40;5.77;;;;;;;;;;5109975;28;20838;-83
2021/12/21 11:00:14;;;;;;;6.70;5.20;;;12.80;76.30;;;;;;5110338;28;20396;-83
2021/12/21 11:02:41;;;;;;;12.23;6.50;;;13.10;82.30;;;;;;5110523;28;20396;-83
2021/12/21 11:05:10;;;;;;;10.10;6.13;;;14.30;65.70;;;;;;5110267;28;20423;-83
2021/12/21 11:07:43;;;;;;;7.60;4.90;;;14.90;52.30;;;;;;5109018;28;20416;-83
2021/12/21 11:10:27;;;;;;;14.07;6.20;;;14.60;44.80;;;;;;5109989;28;20412;-83
2021/12/21 11:13:00;;;;;;;7.17;4.97;;;14.70;45.80;;;;;;5111712;28;20415;-83
2021/12/21 11:15:38;;;;;;;6.70;4.70;;;14.80;50.90;;;;;;5112449;28;20459;-82
2021/12/21 11:18:12;;;;;;;10.57;6.73;;;14.80;48.70;;;;;;5111594;28;20387;-83
2021/12/21 11:20:42;;;;;;;8.27;4.77;;;;;;;;;;5110360;28;20419;-82
2021/12/21 11:23:12;;;;;;;14.40;5.17;;;15.70;49.60;;;;;;5110048;28;20396;-82
2021/12/21 11:25:39;;;;;;;6.90;5.63;;;;;;;;;;5110303;28;20431;-82
2021/12/21 11:28:05;;;;;;;9.20;5.30;;;16.10;45.00;;;;;;5110753;28;20902;-82
2021/12/21 11:30:34;;;;;;;8.83;4.60;;;16.20;50.50;;;;;;5110072;28;20419;-82
2021/12/21 11:33:03;;;;;;;10.13;5.03;;;16.10;52.90;;;;;;5109943;28;20969;-82
2021/12/21 11:38:02;;;;;;;6.80;5.23;;;14.90;54.30;;;;;;5110081;28;20477;-82
2021/12/21 11:40:32;;;;;;;7.47;4.67;;;14.60;50.90;;;;;;5108391;28;20415;-83
2021/12/21 11:43:37;;;;;;;8.30;4.27;;;15.00;55.20;;;;;;5108243;28;20498;-82
